sensor_id;sensor_type;location;lat;lon;timestamp;temperature;humidity
12853;DHT22;6495;51.808;7.478;2023-10-31T00:02:15;13.50;99.90
12853;DHT22;6495;51.808;7.478;2023-10-31T00:04:49;13.50;99.90
12853;DHT22;6495;51.808;7.478;2023-10-31T00:07:23;13.40;99.90
12853;DHT22;6495;51.808;7.478;2023-10-31T00:10:04;13.40;99.90
12853;DHT22;6495;51.808;7.478;2023-10-31T00:13:11;13.40;99.90
12853;DHT22;6495;51.808;7.478;2023-10-31T00:15:43;13.40;99.90
12853;DHT22;6495;51.808;7.478;2023-10-31T00:18:18;13.40;99.90
12853;DHT22;6495;51.808;7.478;2023-10-31T00:20:48;13.40;99.90
12853;DHT22;6495;51.808;7.478;2023-10-31T00:23:16;13.40;99.90
12853;DHT22;6495;51.808;7.478;2023-10-31T00:25:45;13.40;99.90
12853;DHT22;6495;51.808;7.478;2023-10-31T00:28:13;13.40;99.90
12853;DHT22;6495;51.808;7.478;2023-10-31T00:30:43;13.40;99.90
12853;DHT22;6495;51.808;7.478;2023-10-31T00:33:11;13.40;99.90
12853;DHT22;6495;51.808;7.478;2023-10-31T00:35:39;13.40;99.90
12853;DHT22;6495;51.808;7.478;2023-10-31T00:38:08;13.40;99.90
12853;DHT22;6495;51.808;7.478;2023-10-31T00:40:37;13.40;99.90
12853;DHT22;6495;51.808;7.478;2023-10-31T00:43:05;13.40;99.90
12853;DHT22;6495;51.808;7.478;2023-10-31T00:45:33;13.40;99.90
12853;DHT22;6495;51.808;7.478;2023-10-31T00:48:05;13.40;99.90
12853;DHT22;6495;51.808;7.478;2023-10-31T00:50:38;13.40;99.90
12853;DHT22;6495;51.808;7.478;2023-10-31T00:53:07;13.40;99.90
12853;DHT22;6495;51.808;7.478;2023-10-31T00:55:35;13.40;99.90
12853;DHT22;6495;51.808;7.478;2023-10-31T00:58:07;13.30;99.90
12853;DHT22;6495;51.808;7.478;2023-10-31T01:00:35;13.30;99.90
12853;DHT22;6495;51.808;7.478;2023-10-31T01:03:05;13.30;99.90
12853;DHT22;6495;51.808;7.478;2023-10-31T01:05:33;13.30;99.90
12853;DHT22;6495;51.808;7.478;2023-10-31T01:08:02;13.30;99.90
12853;DHT22;6495;51.808;7.478;2023-10-31T01:10:34;13.40;99.90
12853;DHT22;6495;51.808;7.478;2023-10-31T01:13:02;13.30;99.90
12853;DHT22;6495;51.808;7.478;2023-10-31T01:15:33;13.30;99.90
12853;DHT22;6495;51.808;7.478;2023-10-31T01:18:02;13.30;99.90
12853;DHT22;6495;51.808;7.478;2023-10-31T01:21:25;13.20;99.90
12853;DHT22;6495;51.808;7.478;2023-10-31T01:23:53;13.10;99.90
12853;DHT22;6495;51.808;7.478;2023-10-31T01:26:21;13.10;99.90
12853;DHT22;6495;51.808;7.478;2023-10-31T01:28:49;13.00;99.90
12853;DHT22;6495;51.808;7.478;2023-10-31T01:31:18;12.90;99.90
12853;DHT22;6495;51.808;7.478;2023-10-31T01:33:50;12.90;99.90
12853;DHT22;6495;51.808;7.478;2023-10-31T01:36:18;12.90;99.90
12853;DHT22;6495;51.808;7.478;2023-10-31T01:38:48;12.80;99.90
12853;DHT22;6495;51.808;7.478;2023-10-31T01:41:16;12.80;99.90
12853;DHT22;6495;51.808;7.478;2023-10-31T01:43:44;12.70;99.90
12853;DHT22;6495;51.808;7.478;2023-10-31T01:46:13;12.60;99.90
12853;DHT22;6495;51.808;7.478;2023-10-31T01:48:50;12.60;99.90
12853;DHT22;6495;51.808;7.478;2023-10-31T01:51:19;12.60;99.90
12853;DHT22;6495;51.808;7.478;2023-10-31T01:53:50;12.50;99.90
12853;DHT22;6495;51.808;7.478;2023-10-31T01:56:19;12.50;99.90
12853;DHT22;6495;51.808;7.478;2023-10-31T01:58:49;12.50;99.90
12853;DHT22;6495;51.808;7.478;2023-10-31T02:01:17;12.40;99.90
12853;DHT22;6495;51.808;7.478;2023-10-31T02:03:46;12.40;99.90
12853;DHT22;6495;51.808;7.478;2023-10-31T02:06:16;12.40;99.90
12853;DHT22;6495;51.808;7.478;2023-10-31T02:08:47;12.30;99.90
12853;DHT22;6495;51.808;7.478;2023-10-31T02:11:16;12.30;99.90
12853;DHT22;6495;51.808;7.478;2023-10-31T02:13:45;12.30;99.90
12853;DHT22;6495;51.808;7.478;2023-10-31T02:16:13;12.30;99.90
12853;DHT22;6495;51.808;7.478;2023-10-31T02:18:42;12.20;99.90
12853;DHT22;6495;51.808;7.478;2023-10-31T02:21:13;12.20;99.90
12853;DHT22;6495;51.808;7.478;2023-10-31T02:23:42;12.20;99.90
12853;DHT22;6495;51.808;7.478;2023-10-31T02:26:11;12.20;99.90
12853;DHT22;6495;51.808;7.478;2023-10-31T02:28:39;12.20;99.90
12853;DHT22;6495;51.808;7.478;2023-10-31T02:31:08;12.20;99.90
12853;DHT22;6495;51.808;7.478;2023-10-31T02:33:37;12.10;99.90
12853;DHT22;6495;51.808;7.478;2023-10-31T02:36:06;12.10;99.90
12853;DHT22;6495;51.808;7.478;2023-10-31T02:38:44;12.10;99.90
12853;DHT22;6495;51.808;7.478;2023-10-31T02:41:13;12.10;99.90
12853;DHT22;6495;51.808;7.478;2023-10-31T02:43:42;12.10;99.90
12853;DHT22;6495;51.808;7.478;2023-10-31T02:46:11;12.10;99.90
12853;DHT22;6495;51.808;7.478;2023-10-31T02:48:41;12.10;99.90
12853;DHT22;6495;51.808;7.478;2023-10-31T02:51:13;12.00;99.90
12853;DHT22;6495;51.808;7.478;2023-10-31T02:54:11;12.00;99.90
12853;DHT22;6495;51.808;7.478;2023-10-31T02:56:46;12.00;99.90
12853;DHT22;6495;51.808;7.478;2023-10-31T02:59:20;12.00;99.90
12853;DHT22;6495;51.808;7.478;2023-10-31T03:01:57;11.90;99.90
12853;DHT22;6495;51.808;7.478;2023-10-31T03:04:34;11.90;99.90
12853;DHT22;6495;51.808;7.478;2023-10-31T03:07:10;11.90;99.90
12853;DHT22;6495;51.808;7.478;2023-10-31T03:09:56;11.90;99.90
12853;DHT22;6495;51.808;7.478;2023-10-31T03:12:34;11.80;99.90
12853;DHT22;6495;51.808;7.478;2023-10-31T03:15:21;11.80;99.90
12853;DHT22;6495;51.808;7.478;2023-10-31T03:17:50;11.80;99.90
12853;DHT22;6495;51.808;7.478;2023-10-31T03:20:26;11.80;99.90
12853;DHT22;6495;51.808;7.478;2023-10-31T03:22:55;11.80;99.90
12853;DHT22;6495;51.808;7.478;2023-10-31T03:25:31;11.70;99.90
12853;DHT22;6495;51.808;7.478;2023-10-31T03:28:17;11.70;99.90
12853;DHT22;6495;51.808;7.478;2023-10-31T03:31:13;11.70;99.90
12853;DHT22;6495;51.808;7.478;2023-10-31T03:33:50;11.70;99.90
12853;DHT22;6495;51.808;7.478;2023-10-31T03:36:21;11.70;99.90
12853;DHT22;6495;51.808;7.478;2023-10-31T03:38:49;11.70;99.90
12853;DHT22;6495;51.808;7.478;2023-10-31T03:41:19;11.70;99.90
12853;DHT22;6495;51.808;7.478;2023-10-31T03:43:50;11.70;99.90
12853;DHT22;6495;51.808;7.478;2023-10-31T03:46:21;11.70;99.90
12853;DHT22;6495;51.808;7.478;2023-10-31T03:48:50;11.70;99.90
12853;DHT22;6495;51.808;7.478;2023-10-31T03:51:18;11.70;99.90
12853;DHT22;6495;51.808;7.478;2023-10-31T03:53:47;11.70;99.90
12853;DHT22;6495;51.808;7.478;2023-10-31T03:56:16;11.70;99.90
12853;DHT22;6495;51.808;7.478;2023-10-31T03:58:45;11.70;99.90
12853;DHT22;6495;51.808;7.478;2023-10-31T04:01:14;11.70;99.90
12853;DHT22;6495;51.808;7.478;2023-10-31T04:03:56;11.70;99.90
12853;DHT22;6495;51.808;7.478;2023-10-31T04:06:24;11.70;99.90
12853;DHT22;6495;51.808;7.478;2023-10-31T04:08:53;11.70;99.90
12853;DHT22;6495;51.808;7.478;2023-10-31T04:11:21;11.70;99.90
12853;DHT22;6495;51.808;7.478;2023-10-31T04:13:50;11.70;99.90
12853;DHT22;6495;51.808;7.478;2023-10-31T04:16:18;11.60;99.90
12853;DHT22;6495;51.808;7.478;2023-10-31T04:18:50;11.60;99.90
12853;DHT22;6495;51.808;7.478;2023-10-31T04:21:21;11.60;99.90
12853;DHT22;6495;51.808;7.478;2023-10-31T04:23:49;11.60;99.90
12853;DHT22;6495;51.808;7.478;2023-10-31T04:26:17;11.60;99.90
12853;DHT22;6495;51.808;7.478;2023-10-31T04:28:46;11.60;99.90
12853;DHT22;6495;51.808;7.478;2023-10-31T04:31:19;11.60;99.90
12853;DHT22;6495;51.808;7.478;2023-10-31T04:34:04;11.60;99.90
12853;DHT22;6495;51.808;7.478;2023-10-31T04:36:38;11.60;99.90
12853;DHT22;6495;51.808;7.478;2023-10-31T04:39:13;11.60;99.90
12853;DHT22;6495;51.808;7.478;2023-10-31T04:41:49;11.60;99.90
12853;DHT22;6495;51.808;7.478;2023-10-31T04:44:27;11.60;99.90
12853;DHT22;6495;51.808;7.478;2023-10-31T04:47:01;11.60;99.90
12853;DHT22;6495;51.808;7.478;2023-10-31T04:49:47;11.60;99.90
12853;DHT22;6495;51.808;7.478;2023-10-31T04:52:25;11.60;99.90
12853;DHT22;6495;51.808;7.478;2023-10-31T04:55:01;11.60;99.90
12853;DHT22;6495;51.808;7.478;2023-10-31T04:58:06;11.70;99.90
12853;DHT22;6495;51.808;7.478;2023-10-31T05:00:50;11.70;99.90
12853;DHT22;6495;51.808;7.478;2023-10-31T05:03:31;11.70;99.90
12853;DHT22;6495;51.808;7.478;2023-10-31T05:06:04;11.70;99.90
12853;DHT22;6495;51.808;7.478;2023-10-31T05:08:47;11.70;99.90
12853;DHT22;6495;51.808;7.478;2023-10-31T05:11:19;11.70;99.90
12853;DHT22;6495;51.808;7.478;2023-10-31T05:14:01;11.70;99.90
12853;DHT22;6495;51.808;7.478;2023-10-31T05:16:59;11.70;99.90
12853;DHT22;6495;51.808;7.478;2023-10-31T05:19:36;11.70;99.90
12853;DHT22;6495;51.808;7.478;2023-10-31T05:22:04;11.70;99.90
12853;DHT22;6495;51.808;7.478;2023-10-31T05:24:33;11.70;99.90
12853;DHT22;6495;51.808;7.478;2023-10-31T05:27:05;11.70;99.90
12853;DHT22;6495;51.808;7.478;2023-10-31T05:29:34;11.70;99.90
12853;DHT22;6495;51.808;7.478;2023-10-31T05:32:04;11.70;99.90
12853;DHT22;6495;51.808;7.478;2023-10-31T05:34:33;11.70;99.90
12853;DHT22;6495;51.808;7.478;2023-10-31T05:37:02;11.70;99.90
12853;DHT22;6495;51.808;7.478;2023-10-31T05:39:32;11.70;99.90
12853;DHT22;6495;51.808;7.478;2023-10-31T05:42:08;11.70;99.90
12853;DHT22;6495;51.808;7.478;2023-10-31T05:44:49;11.70;99.90
12853;DHT22;6495;51.808;7.478;2023-10-31T05:47:26;11.70;99.90
12853;DHT22;6495;51.808;7.478;2023-10-31T05:50:14;11.70;99.90
12853;DHT22;6495;51.808;7.478;2023-10-31T05:52:51;11.70;99.90
12853;DHT22;6495;51.808;7.478;2023-10-31T05:55:27;11.70;99.90
12853;DHT22;6495;51.808;7.478;2023-10-31T05:58:14;11.70;99.90
12853;DHT22;6495;51.808;7.478;2023-10-31T06:01:05;11.70;99.90
12853;DHT22;6495;51.808;7.478;2023-10-31T06:03:54;11.70;99.90
12853;DHT22;6495;51.808;7.478;2023-10-31T06:06:36;11.70;99.90
12853;DHT22;6495;51.808;7.478;2023-10-31T06:09:30;11.70;99.90
12853;DHT22;6495;51.808;7.478;2023-10-31T06:12:09;11.70;99.90
12853;DHT22;6495;51.808;7.478;2023-10-31T06:14:52;11.70;99.90
12853;DHT22;6495;51.808;7.478;2023-10-31T06:17:26;11.70;99.90
12853;DHT22;6495;51.808;7.478;2023-10-31T06:20:06;11.70;99.90
12853;DHT22;6495;51.808;7.478;2023-10-31T06:22:38;11.70;99.90
12853;DHT22;6495;51.808;7.478;2023-10-31T06:25:09;11.70;99.90
12853;DHT22;6495;51.808;7.478;2023-10-31T06:27:39;11.60;99.90
12853;DHT22;6495;51.808;7.478;2023-10-31T06:30:09;11.60;99.90
12853;DHT22;6495;51.808;7.478;2023-10-31T06:32:53;11.60;99.90
12853;DHT22;6495;51.808;7.478;2023-10-31T06:35:23;11.60;99.90
12853;DHT22;6495;51.808;7.478;2023-10-31T06:37:53;11.60;99.90
12853;DHT22;6495;51.808;7.478;2023-10-31T06:40:24;11.60;99.90
12853;DHT22;6495;51.808;7.478;2023-10-31T06:42:52;11.60;99.90
12853;DHT22;6495;51.808;7.478;2023-10-31T06:45:21;11.60;99.90
12853;DHT22;6495;51.808;7.478;2023-10-31T06:47:49;11.60;99.90
12853;DHT22;6495;51.808;7.478;2023-10-31T06:50:18;11.50;99.90
12853;DHT22;6495;51.808;7.478;2023-10-31T06:52:48;11.50;99.90
12853;DHT22;6495;51.808;7.478;2023-10-31T06:55:16;11.50;99.90
12853;DHT22;6495;51.808;7.478;2023-10-31T06:57:45;11.50;99.90
12853;DHT22;6495;51.808;7.478;2023-10-31T07:00:14;11.50;99.90
12853;DHT22;6495;51.808;7.478;2023-10-31T07:02:43;11.50;99.90
12853;DHT22;6495;51.808;7.478;2023-10-31T07:05:11;11.50;99.90
12853;DHT22;6495;51.808;7.478;2023-10-31T07:07:43;11.50;99.90
12853;DHT22;6495;51.808;7.478;2023-10-31T07:10:14;11.50;99.90
12853;DHT22;6495;51.808;7.478;2023-10-31T07:12:43;11.50;99.90
12853;DHT22;6495;51.808;7.478;2023-10-31T07:15:11;11.50;99.90
12853;DHT22;6495;51.808;7.478;2023-10-31T07:17:40;11.50;99.90
12853;DHT22;6495;51.808;7.478;2023-10-31T07:20:08;11.50;99.90
12853;DHT22;6495;51.808;7.478;2023-10-31T07:22:37;11.50;99.90
12853;DHT22;6495;51.808;7.478;2023-10-31T07:25:23;11.50;99.90
12853;DHT22;6495;51.808;7.478;2023-10-31T07:27:51;11.60;99.90
12853;DHT22;6495;51.808;7.478;2023-10-31T07:30:20;11.60;99.90
12853;DHT22;6495;51.808;7.478;2023-10-31T07:32:48;11.60;99.90
12853;DHT22;6495;51.808;7.478;2023-10-31T07:35:17;11.60;99.90
12853;DHT22;6495;51.808;7.478;2023-10-31T07:37:46;11.60;99.90
12853;DHT22;6495;51.808;7.478;2023-10-31T07:40:15;11.70;99.90
12853;DHT22;6495;51.808;7.478;2023-10-31T07:42:47;11.70;99.90
12853;DHT22;6495;51.808;7.478;2023-10-31T07:45:16;11.70;99.90
12853;DHT22;6495;51.808;7.478;2023-10-31T07:47:44;11.70;99.90
12853;DHT22;6495;51.808;7.478;2023-10-31T07:50:12;11.70;99.90
12853;DHT22;6495;51.808;7.478;2023-10-31T07:52:41;11.70;99.90
12853;DHT22;6495;51.808;7.478;2023-10-31T07:55:15;11.70;99.90
12853;DHT22;6495;51.808;7.478;2023-10-31T07:57:43;11.70;99.90
12853;DHT22;6495;51.808;7.478;2023-10-31T08:00:14;11.70;99.90
12853;DHT22;6495;51.808;7.478;2023-10-31T08:02:46;11.70;99.90
12853;DHT22;6495;51.808;7.478;2023-10-31T08:05:14;11.80;99.90
12853;DHT22;6495;51.808;7.478;2023-10-31T08:07:43;11.80;99.90
12853;DHT22;6495;51.808;7.478;2023-10-31T08:10:12;11.80;99.90
12853;DHT22;6495;51.808;7.478;2023-10-31T08:12:40;11.80;99.90
12853;DHT22;6495;51.808;7.478;2023-10-31T08:15:09;11.80;99.90
12853;DHT22;6495;51.808;7.478;2023-10-31T08:17:39;11.80;99.90
12853;DHT22;6495;51.808;7.478;2023-10-31T08:20:08;11.80;99.90
12853;DHT22;6495;51.808;7.478;2023-10-31T08:22:39;11.80;99.90
12853;DHT22;6495;51.808;7.478;2023-10-31T08:25:09;11.80;99.90
12853;DHT22;6495;51.808;7.478;2023-10-31T08:27:37;11.80;99.90
12853;DHT22;6495;51.808;7.478;2023-10-31T08:30:07;11.80;99.90
12853;DHT22;6495;51.808;7.478;2023-10-31T08:32:36;11.90;99.90
12853;DHT22;6495;51.808;7.478;2023-10-31T08:35:07;11.90;99.90
12853;DHT22;6495;51.808;7.478;2023-10-31T08:37:36;11.90;99.90
12853;DHT22;6495;51.808;7.478;2023-10-31T08:40:05;12.00;99.90
12853;DHT22;6495;51.808;7.478;2023-10-31T08:42:35;12.00;99.90
12853;DHT22;6495;51.808;7.478;2023-10-31T08:45:04;12.10;99.90
12853;DHT22;6495;51.808;7.478;2023-10-31T08:47:33;12.20;99.90
12853;DHT22;6495;51.808;7.478;2023-10-31T08:50:02;12.20;99.90
12853;DHT22;6495;51.808;7.478;2023-10-31T08:52:32;12.30;99.90
12853;DHT22;6495;51.808;7.478;2023-10-31T08:55:00;12.30;99.90
12853;DHT22;6495;51.808;7.478;2023-10-31T08:57:29;12.40;99.90
12853;DHT22;6495;51.808;7.478;2023-10-31T08:59:57;12.40;99.90
12853;DHT22;6495;51.808;7.478;2023-10-31T09:02:26;12.40;99.90
12853;DHT22;6495;51.808;7.478;2023-10-31T09:04:54;12.50;99.90
12853;DHT22;6495;51.808;7.478;2023-10-31T09:07:22;12.50;99.90
12853;DHT22;6495;51.808;7.478;2023-10-31T09:09:57;12.50;99.90
12853;DHT22;6495;51.808;7.478;2023-10-31T09:12:25;12.50;99.90
12853;DHT22;6495;51.808;7.478;2023-10-31T09:14:57;12.50;99.90
12853;DHT22;6495;51.808;7.478;2023-10-31T09:17:25;12.60;99.90
12853;DHT22;6495;51.808;7.478;2023-10-31T09:19:53;12.60;99.90
12853;DHT22;6495;51.808;7.478;2023-10-31T09:22:24;12.60;99.90
12853;DHT22;6495;51.808;7.478;2023-10-31T09:24:52;12.60;99.90
12853;DHT22;6495;51.808;7.478;2023-10-31T09:27:22;12.60;99.90
12853;DHT22;6495;51.808;7.478;2023-10-31T09:29:50;12.60;99.90
12853;DHT22;6495;51.808;7.478;2023-10-31T09:32:21;12.60;99.90
12853;DHT22;6495;51.808;7.478;2023-10-31T09:34:50;12.60;99.90
12853;DHT22;6495;51.808;7.478;2023-10-31T09:37:18;12.60;99.90
12853;DHT22;6495;51.808;7.478;2023-10-31T09:39:48;12.50;99.90
12853;DHT22;6495;51.808;7.478;2023-10-31T09:42:16;12.60;99.90
12853;DHT22;6495;51.808;7.478;2023-10-31T09:44:49;12.60;99.90
12853;DHT22;6495;51.808;7.478;2023-10-31T09:47:19;12.60;99.90
12853;DHT22;6495;51.808;7.478;2023-10-31T09:49:47;12.60;99.90
12853;DHT22;6495;51.808;7.478;2023-10-31T09:52:21;12.60;99.90
12853;DHT22;6495;51.808;7.478;2023-10-31T09:54:51;12.60;99.90
12853;DHT22;6495;51.808;7.478;2023-10-31T09:57:20;12.60;99.90
12853;DHT22;6495;51.808;7.478;2023-10-31T09:59:50;12.60;99.90
12853;DHT22;6495;51.808;7.478;2023-10-31T10:02:22;12.60;99.90
12853;DHT22;6495;51.808;7.478;2023-10-31T10:04:51;12.60;99.90
12853;DHT22;6495;51.808;7.478;2023-10-31T10:07:19;12.60;99.90
12853;DHT22;6495;51.808;7.478;2023-10-31T10:09:48;12.70;99.90
12853;DHT22;6495;51.808;7.478;2023-10-31T10:12:16;12.70;99.90
12853;DHT22;6495;51.808;7.478;2023-10-31T10:14:45;12.70;99.90
12853;DHT22;6495;51.808;7.478;2023-10-31T10:17:17;12.70;99.90
12853;DHT22;6495;51.808;7.478;2023-10-31T10:20:04;12.70;99.90
12853;DHT22;6495;51.808;7.478;2023-10-31T10:22:39;12.80;99.90
12853;DHT22;6495;51.808;7.478;2023-10-31T10:25:10;12.80;99.90
12853;DHT22;6495;51.808;7.478;2023-10-31T10:27:41;12.80;99.90
12853;DHT22;6495;51.808;7.478;2023-10-31T10:30:10;12.80;99.90
12853;DHT22;6495;51.808;7.478;2023-10-31T10:32:42;12.80;99.90
12853;DHT22;6495;51.808;7.478;2023-10-31T10:35:10;12.90;99.90
12853;DHT22;6495;51.808;7.478;2023-10-31T10:37:39;12.90;99.90
12853;DHT22;6495;51.808;7.478;2023-10-31T10:40:10;12.90;99.90
12853;DHT22;6495;51.808;7.478;2023-10-31T10:42:44;12.90;99.90
12853;DHT22;6495;51.808;7.478;2023-10-31T10:45:14;13.00;99.90
12853;DHT22;6495;51.808;7.478;2023-10-31T10:47:49;13.00;99.90
12853;DHT22;6495;51.808;7.478;2023-10-31T10:50:19;13.00;99.90
12853;DHT22;6495;51.808;7.478;2023-10-31T10:53:03;13.00;99.90
12853;DHT22;6495;51.808;7.478;2023-10-31T10:55:40;13.00;99.90
12853;DHT22;6495;51.808;7.478;2023-10-31T10:58:19;13.00;99.90
12853;DHT22;6495;51.808;7.478;2023-10-31T11:00:52;13.00;99.90
12853;DHT22;6495;51.808;7.478;2023-10-31T11:03:24;13.10;99.90
12853;DHT22;6495;51.808;7.478;2023-10-31T11:05:54;13.10;99.90
12853;DHT22;6495;51.808;7.478;2023-10-31T11:08:24;13.10;99.90
12853;DHT22;6495;51.808;7.478;2023-10-31T11:10:55;13.10;99.90
12853;DHT22;6495;51.808;7.478;2023-10-31T11:13:24;13.10;99.90
12853;DHT22;6495;51.808;7.478;2023-10-31T11:15:59;13.10;99.90
12853;DHT22;6495;51.808;7.478;2023-10-31T11:18:37;13.10;99.90
12853;DHT22;6495;51.808;7.478;2023-10-31T11:21:06;13.10;99.90
12853;DHT22;6495;51.808;7.478;2023-10-31T11:23:36;13.10;99.90
12853;DHT22;6495;51.808;7.478;2023-10-31T11:26:07;13.10;99.90
12853;DHT22;6495;51.808;7.478;2023-10-31T11:28:36;13.10;99.90
12853;DHT22;6495;51.808;7.478;2023-10-31T11:31:05;13.20;99.90
12853;DHT22;6495;51.808;7.478;2023-10-31T11:33:38;13.10;99.90
12853;DHT22;6495;51.808;7.478;2023-10-31T11:36:13;13.20;99.90
12853;DHT22;6495;51.808;7.478;2023-10-31T11:38:42;13.20;99.90
12853;DHT22;6495;51.808;7.478;2023-10-31T11:41:11;13.20;99.90
12853;DHT22;6495;51.808;7.478;2023-10-31T11:43:52;13.20;99.90
12853;DHT22;6495;51.808;7.478;2023-10-31T11:46:23;13.20;99.90
12853;DHT22;6495;51.808;7.478;2023-10-31T11:48:55;13.20;99.90
12853;DHT22;6495;51.808;7.478;2023-10-31T11:51:24;13.20;99.90
12853;DHT22;6495;51.808;7.478;2023-10-31T11:53:53;13.20;99.90
12853;DHT22;6495;51.808;7.478;2023-10-31T11:56:22;13.20;99.90
12853;DHT22;6495;51.808;7.478;2023-10-31T11:58:57;13.20;99.90
12853;DHT22;6495;51.808;7.478;2023-10-31T12:01:26;13.30;99.90
12853;DHT22;6495;51.808;7.478;2023-10-31T12:03:56;13.30;99.90
12853;DHT22;6495;51.808;7.478;2023-10-31T12:06:25;13.30;99.90
12853;DHT22;6495;51.808;7.478;2023-10-31T12:08:59;13.30;99.90
12853;DHT22;6495;51.808;7.478;2023-10-31T12:11:29;13.30;99.90
12853;DHT22;6495;51.808;7.478;2023-10-31T12:13:59;13.30;99.90
12853;DHT22;6495;51.808;7.478;2023-10-31T12:16:30;13.30;99.90
12853;DHT22;6495;51.808;7.478;2023-10-31T12:19:02;13.30;99.90
12853;DHT22;6495;51.808;7.478;2023-10-31T12:21:36;13.30;99.90
12853;DHT22;6495;51.808;7.478;2023-10-31T12:24:10;13.30;99.90
12853;DHT22;6495;51.808;7.478;2023-10-31T12:26:40;13.30;99.90
12853;DHT22;6495;51.808;7.478;2023-10-31T12:29:10;13.40;99.90
12853;DHT22;6495;51.808;7.478;2023-10-31T12:31:43;13.30;99.90
12853;DHT22;6495;51.808;7.478;2023-10-31T12:34:15;13.40;99.90
12853;DHT22;6495;51.808;7.478;2023-10-31T12:36:45;13.30;99.90
12853;DHT22;6495;51.808;7.478;2023-10-31T12:39:17;13.40;99.90
12853;DHT22;6495;51.808;7.478;2023-10-31T12:41:55;13.40;99.90
12853;DHT22;6495;51.808;7.478;2023-10-31T12:44:26;13.40;99.90
12853;DHT22;6495;51.808;7.478;2023-10-31T12:46:57;13.40;99.90
12853;DHT22;6495;51.808;7.478;2023-10-31T12:49:28;13.40;99.90
12853;DHT22;6495;51.808;7.478;2023-10-31T12:51:58;13.40;99.90
12853;DHT22;6495;51.808;7.478;2023-10-31T12:54:31;13.40;99.90
12853;DHT22;6495;51.808;7.478;2023-10-31T12:57:02;13.50;99.90
12853;DHT22;6495;51.808;7.478;2023-10-31T12:59:32;13.50;99.90
12853;DHT22;6495;51.808;7.478;2023-10-31T13:02:03;13.50;99.90
12853;DHT22;6495;51.808;7.478;2023-10-31T13:04:34;13.50;99.90
12853;DHT22;6495;51.808;7.478;2023-10-31T13:07:07;13.60;99.90
12853;DHT22;6495;51.808;7.478;2023-10-31T13:09:37;13.60;99.90
12853;DHT22;6495;51.808;7.478;2023-10-31T13:12:08;13.70;99.90
12853;DHT22;6495;51.808;7.478;2023-10-31T13:14:38;13.70;99.90
12853;DHT22;6495;51.808;7.478;2023-10-31T13:17:07;13.70;99.90
12853;DHT22;6495;51.808;7.478;2023-10-31T13:19:37;13.80;99.90
12853;DHT22;6495;51.808;7.478;2023-10-31T13:22:05;13.80;99.90
12853;DHT22;6495;51.808;7.478;2023-10-31T13:24:34;13.80;99.90
12853;DHT22;6495;51.808;7.478;2023-10-31T13:27:02;13.80;99.90
12853;DHT22;6495;51.808;7.478;2023-10-31T13:29:34;13.80;99.90
12853;DHT22;6495;51.808;7.478;2023-10-31T13:32:03;13.80;99.90
12853;DHT22;6495;51.808;7.478;2023-10-31T13:34:32;13.80;99.90
12853;DHT22;6495;51.808;7.478;2023-10-31T13:37:02;13.80;99.90
12853;DHT22;6495;51.808;7.478;2023-10-31T13:39:31;13.80;99.90
12853;DHT22;6495;51.808;7.478;2023-10-31T13:41:59;13.80;99.90
12853;DHT22;6495;51.808;7.478;2023-10-31T13:44:30;13.80;99.90
12853;DHT22;6495;51.808;7.478;2023-10-31T13:46:59;13.80;99.90
12853;DHT22;6495;51.808;7.478;2023-10-31T13:49:31;13.70;99.90
12853;DHT22;6495;51.808;7.478;2023-10-31T13:51:59;13.70;99.90
12853;DHT22;6495;51.808;7.478;2023-10-31T13:54:29;13.70;99.90
12853;DHT22;6495;51.808;7.478;2023-10-31T13:56:57;13.70;99.90
12853;DHT22;6495;51.808;7.478;2023-10-31T13:59:26;13.70;99.90
12853;DHT22;6495;51.808;7.478;2023-10-31T14:01:55;13.70;99.90
12853;DHT22;6495;51.808;7.478;2023-10-31T14:04:23;13.70;99.90
12853;DHT22;6495;51.808;7.478;2023-10-31T14:06:52;13.70;99.90
12853;DHT22;6495;51.808;7.478;2023-10-31T14:09:21;13.70;99.90
12853;DHT22;6495;51.808;7.478;2023-10-31T14:11:53;13.70;99.90
12853;DHT22;6495;51.808;7.478;2023-10-31T14:14:28;13.70;99.90
12853;DHT22;6495;51.808;7.478;2023-10-31T14:16:59;13.70;99.90
12853;DHT22;6495;51.808;7.478;2023-10-31T14:19:34;13.60;99.90
12853;DHT22;6495;51.808;7.478;2023-10-31T14:22:07;13.60;99.90
12853;DHT22;6495;51.808;7.478;2023-10-31T14:24:36;13.60;99.90
12853;DHT22;6495;51.808;7.478;2023-10-31T14:27:08;13.60;99.90
12853;DHT22;6495;51.808;7.478;2023-10-31T14:29:37;13.60;99.90
12853;DHT22;6495;51.808;7.478;2023-10-31T14:32:10;13.60;99.90
12853;DHT22;6495;51.808;7.478;2023-10-31T14:34:42;13.60;99.90
12853;DHT22;6495;51.808;7.478;2023-10-31T14:37:14;13.60;99.90
12853;DHT22;6495;51.808;7.478;2023-10-31T14:39:42;13.50;99.90
12853;DHT22;6495;51.808;7.478;2023-10-31T14:42:12;13.50;99.90
12853;DHT22;6495;51.808;7.478;2023-10-31T14:44:41;13.50;99.90
12853;DHT22;6495;51.808;7.478;2023-10-31T14:47:10;13.50;99.90
12853;DHT22;6495;51.808;7.478;2023-10-31T14:49:38;13.50;99.90
12853;DHT22;6495;51.808;7.478;2023-10-31T14:52:07;13.50;99.90
12853;DHT22;6495;51.808;7.478;2023-10-31T14:55:14;13.50;99.90
12853;DHT22;6495;51.808;7.478;2023-10-31T14:57:51;13.50;99.90
12853;DHT22;6495;51.808;7.478;2023-10-31T15:00:25;13.50;99.90
12853;DHT22;6495;51.808;7.478;2023-10-31T15:02:56;13.50;99.90
12853;DHT22;6495;51.808;7.478;2023-10-31T15:05:25;13.50;99.90
12853;DHT22;6495;51.808;7.478;2023-10-31T15:07:58;13.50;99.90
12853;DHT22;6495;51.808;7.478;2023-10-31T15:10:42;13.50;99.90
12853;DHT22;6495;51.808;7.478;2023-10-31T15:13:19;13.50;99.90
12853;DHT22;6495;51.808;7.478;2023-10-31T15:16:05;13.50;99.90
12853;DHT22;6495;51.808;7.478;2023-10-31T15:18:34;13.50;99.90
12853;DHT22;6495;51.808;7.478;2023-10-31T15:21:03;13.50;99.90
12853;DHT22;6495;51.808;7.478;2023-10-31T15:23:36;13.50;99.90
12853;DHT22;6495;51.808;7.478;2023-10-31T15:26:09;13.50;99.90
12853;DHT22;6495;51.808;7.478;2023-10-31T15:28:42;13.50;99.90
12853;DHT22;6495;51.808;7.478;2023-10-31T15:31:11;13.50;99.90
12853;DHT22;6495;51.808;7.478;2023-10-31T15:33:40;13.50;99.90
12853;DHT22;6495;51.808;7.478;2023-10-31T15:36:10;13.50;99.90
12853;DHT22;6495;51.808;7.478;2023-10-31T15:38:39;13.50;99.90
12853;DHT22;6495;51.808;7.478;2023-10-31T15:41:08;13.50;99.90
12853;DHT22;6495;51.808;7.478;2023-10-31T15:43:45;13.50;99.90
12853;DHT22;6495;51.808;7.478;2023-10-31T15:46:14;13.50;99.90
12853;DHT22;6495;51.808;7.478;2023-10-31T15:48:42;13.50;99.90
12853;DHT22;6495;51.808;7.478;2023-10-31T15:51:11;13.40;99.90
12853;DHT22;6495;51.808;7.478;2023-10-31T15:53:39;13.40;99.90
12853;DHT22;6495;51.808;7.478;2023-10-31T15:56:08;13.40;99.90
12853;DHT22;6495;51.808;7.478;2023-10-31T15:58:37;13.40;99.90
12853;DHT22;6495;51.808;7.478;2023-10-31T16:01:08;13.40;99.90
12853;DHT22;6495;51.808;7.478;2023-10-31T16:03:36;13.30;99.90
12853;DHT22;6495;51.808;7.478;2023-10-31T16:06:05;13.30;99.90
12853;DHT22;6495;51.808;7.478;2023-10-31T16:08:37;13.30;99.90
12853;DHT22;6495;51.808;7.478;2023-10-31T16:11:07;13.30;99.90
12853;DHT22;6495;51.808;7.478;2023-10-31T16:13:36;13.30;99.90
12853;DHT22;6495;51.808;7.478;2023-10-31T16:16:10;13.20;99.90